createdAt,value
2016-12-31T00:00:16.275Z,929.71
2016-12-31T00:00:44.038Z,929.71
2016-12-31T00:01:11.780Z,929.69
2016-12-31T00:01:39.596Z,929.66
2016-12-31T00:02:07.386Z,929.69
2016-12-31T00:02:35.168Z,929.72
2016-12-31T00:03:02.941Z,929.74
2016-12-31T00:03:30.805Z,929.74
2016-12-31T00:03:58.675Z,929.75
2016-12-31T00:04:26.446Z,929.75
2016-12-31T00:04:54.253Z,929.76
2016-12-31T00:05:22.014Z,929.74
2016-12-31T00:05:49.825Z,929.7
2016-12-31T00:06:17.612Z,929.75
2016-12-31T00:06:45.417Z,929.75
2016-12-31T00:07:13.199Z,929.75
2016-12-31T00:07:40.933Z,929.79
2016-12-31T00:08:08.739Z,929.77
2016-12-31T00:08:36.581Z,929.78
2016-12-31T00:09:04.396Z,929.78
2016-12-31T00:09:32.155Z,929.75
2016-12-31T00:09:59.955Z,929.78
2016-12-31T00:10:27.781Z,929.77
2016-12-31T00:10:55.704Z,929.79
2016-12-31T00:11:23.508Z,929.77
2016-12-31T00:11:51.359Z,929.74
2016-12-31T00:12:19.313Z,929.73
2016-12-31T00:12:47.050Z,929.71
2016-12-31T00:13:14.782Z,929.7
2016-12-31T00:13:42.635Z,929.75
2016-12-31T00:14:10.432Z,929.69
2016-12-31T00:14:38.230Z,929.71
2016-12-31T00:15:06.061Z,929.71
2016-12-31T00:15:33.836Z,929.75
2016-12-31T00:16:01.608Z,929.75
2016-12-31T00:16:29.376Z,929.76
2016-12-31T00:16:57.159Z,929.75
2016-12-31T00:17:24.966Z,929.73
2016-12-31T00:17:52.803Z,929.73
2016-12-31T00:18:20.577Z,929.75
2016-12-31T00:18:48.556Z,929.75
2016-12-31T00:19:16.315Z,929.77
2016-12-31T00:19:44.121Z,929.8
2016-12-31T00:20:11.916Z,929.8
2016-12-31T00:20:39.704Z,929.77
2016-12-31T00:21:07.505Z,929.77
2016-12-31T00:21:35.260Z,929.79
2016-12-31T00:22:03.031Z,929.8
2016-12-31T00:22:30.807Z,929.77
2016-12-31T00:22:58.544Z,929.78
2016-12-31T00:23:26.284Z,929.8
2016-12-31T00:23:54.164Z,929.79
2016-12-31T00:24:21.955Z,929.76
2016-12-31T00:24:49.767Z,929.81
2016-12-31T00:25:17.515Z,929.78
2016-12-31T00:25:45.304Z,929.78
2016-12-31T00:26:13.061Z,929.77
2016-12-31T00:26:40.884Z,929.75
2016-12-31T00:27:08.664Z,929.75
2016-12-31T00:27:36.454Z,929.75
2016-12-31T00:28:04.254Z,929.79
2016-12-31T00:28:32.003Z,929.76
2016-12-31T00:28:59.897Z,929.78
2016-12-31T00:29:27.663Z,929.8
2016-12-31T00:29:55.461Z,929.82
2016-12-31T00:30:23.256Z,929.83
2016-12-31T00:30:51.049Z,929.83
2016-12-31T00:31:18.836Z,929.84
2016-12-31T00:31:46.620Z,929.82
2016-12-31T00:32:14.378Z,929.82
2016-12-31T00:32:42.159Z,929.84
2016-12-31T00:33:09.966Z,929.84
2016-12-31T00:33:37.725Z,929.83
2016-12-31T00:34:05.577Z,929.85
2016-12-31T00:34:33.373Z,929.84
2016-12-31T00:35:01.145Z,929.85
2016-12-31T00:35:28.896Z,929.86
2016-12-31T00:35:56.634Z,929.85
2016-12-31T00:36:24.445Z,929.79
2016-12-31T00:36:52.217Z,929.8
2016-12-31T00:37:20.090Z,929.81
2016-12-31T00:37:47.834Z,929.8
2016-12-31T00:38:15.846Z,929.8
2016-12-31T00:38:43.647Z,929.82
2016-12-31T00:39:11.517Z,929.8
2016-12-31T00:39:39.305Z,929.8
2016-12-31T00:40:07.088Z,929.82
2016-12-31T00:40:34.848Z,929.8
2016-12-31T00:41:02.618Z,929.81
2016-12-31T00:41:30.411Z,929.86
2016-12-31T00:41:58.182Z,929.86
2016-12-31T00:42:25.953Z,929.88
2016-12-31T00:42:53.743Z,929.87
2016-12-31T00:43:21.482Z,929.91
2016-12-31T00:43:49.248Z,929.9
2016-12-31T00:44:17.175Z,929.89
2016-12-31T00:44:44.956Z,929.93
2016-12-31T00:45:12.729Z,929.9
2016-12-31T00:45:40.652Z,929.9
2016-12-31T00:46:08.459Z,929.9
2016-12-31T00:46:36.267Z,929.92
2016-12-31T00:47:04.038Z,929.93
2016-12-31T00:47:31.885Z,929.92
2016-12-31T00:47:59.689Z,929.92
2016-12-31T00:48:27.494Z,929.94
2016-12-31T00:48:55.299Z,929.94
2016-12-31T00:49:23.211Z,929.99
2016-12-31T00:49:51.046Z,929.96
2016-12-31T00:50:18.901Z,929.99
2016-12-31T00:50:46.666Z,929.99
2016-12-31T00:51:14.473Z,929.96
2016-12-31T00:51:42.270Z,929.99
2016-12-31T00:52:10.118Z,930.01
2016-12-31T00:52:37.966Z,930.01
2016-12-31T00:53:05.742Z,930.02
2016-12-31T00:53:33.509Z,930
2016-12-31T00:54:01.294Z,930.02
2016-12-31T00:54:29.234Z,930.03
2016-12-31T00:54:57.157Z,930.05
2016-12-31T00:55:24.932Z,930.06
2016-12-31T00:55:52.712Z,930.1
2016-12-31T00:56:20.537Z,930.08
2016-12-31T00:56:48.323Z,930.06
2016-12-31T00:57:16.169Z,930.08
2016-12-31T00:57:43.944Z,930.11
2016-12-31T00:58:11.765Z,930.1
2016-12-31T00:58:39.534Z,930.1
2016-12-31T00:59:07.329Z,930.1
2016-12-31T00:59:35.313Z,930.11
2016-12-31T01:00:03.201Z,930.1
2016-12-31T01:00:31.110Z,930.14
2016-12-31T01:00:58.902Z,930.11
2016-12-31T01:01:26.679Z,930.14
2016-12-31T01:01:54.458Z,930.14
2016-12-31T01:02:22.333Z,930.13
2016-12-31T01:02:50.117Z,930.14
2016-12-31T01:03:17.895Z,930.16
2016-12-31T01:03:45.671Z,930.17
2016-12-31T01:04:13.555Z,930.15
2016-12-31T01:04:41.308Z,930.18
2016-12-31T01:05:09.048Z,930.19
2016-12-31T01:05:36.878Z,930.23
2016-12-31T01:06:04.696Z,930.21
2016-12-31T01:06:32.522Z,930.23
2016-12-31T01:07:00.421Z,930.26
2016-12-31T01:07:28.167Z,930.25
2016-12-31T01:07:55.943Z,930.24
2016-12-31T01:08:23.736Z,930.24
2016-12-31T01:08:51.443Z,930.24
2016-12-31T01:09:19.466Z,930.25
2016-12-31T01:09:47.287Z,930.29
2016-12-31T01:10:15.087Z,930.25
2016-12-31T01:10:42.866Z,930.24
2016-12-31T01:11:10.678Z,930.3
2016-12-31T01:11:38.531Z,930.31
2016-12-31T01:12:06.313Z,930.33
2016-12-31T01:12:34.122Z,930.32
2016-12-31T01:13:01.942Z,930.37
2016-12-31T01:13:29.727Z,930.34
2016-12-31T01:13:57.519Z,930.37
2016-12-31T01:14:25.397Z,930.42
2016-12-31T01:14:53.173Z,930.44
2016-12-31T01:15:20.925Z,930.45
2016-12-31T01:15:48.695Z,930.41
2016-12-31T01:16:16.458Z,930.44
2016-12-31T01:16:44.201Z,930.44
2016-12-31T01:17:11.997Z,930.44
2016-12-31T01:17:39.808Z,930.46
2016-12-31T01:18:07.606Z,930.47
2016-12-31T01:18:35.405Z,930.49
2016-12-31T01:19:03.172Z,930.49
2016-12-31T01:19:31.074Z,930.47
2016-12-31T01:19:58.834Z,930.47
2016-12-31T01:20:26.635Z,930.46
2016-12-31T01:20:54.433Z,930.45
2016-12-31T01:21:22.213Z,930.46
2016-12-31T01:21:50.005Z,930.47
2016-12-31T01:22:17.822Z,930.46
2016-12-31T01:22:45.614Z,930.43
2016-12-31T01:23:13.420Z,930.41
2016-12-31T01:23:41.181Z,930.39
2016-12-31T01:24:08.987Z,930.4
2016-12-31T01:24:36.910Z,930.39
2016-12-31T01:25:04.655Z,930.39
2016-12-31T01:25:32.551Z,930.42
2016-12-31T01:26:00.353Z,930.39
2016-12-31T01:26:28.151Z,930.39
2016-12-31T01:26:55.972Z,930.38
2016-12-31T01:27:23.781Z,930.32
2016-12-31T01:27:51.588Z,930.4
2016-12-31T01:28:19.347Z,930.36
2016-12-31T01:28:47.098Z,930.31
2016-12-31T01:29:14.967Z,930.3
2016-12-31T01:29:42.858Z,930.3
2016-12-31T01:30:10.675Z,930.32
2016-12-31T01:30:38.455Z,930.24
2016-12-31T01:31:06.242Z,930.22
2016-12-31T01:31:34.003Z,930.23
2016-12-31T01:32:01.874Z,930.21
2016-12-31T01:32:29.676Z,930.21
2016-12-31T01:32:57.528Z,930.22
2016-12-31T01:33:25.329Z,930.19
2016-12-31T01:33:53.185Z,930.2
2016-12-31T01:34:21.019Z,930.18
2016-12-31T01:34:48.935Z,930.18
2016-12-31T01:35:16.719Z,930.18
2016-12-31T01:35:44.557Z,930.17
2016-12-31T01:36:12.350Z,930.15
2016-12-31T01:36:40.211Z,930.17
2016-12-31T01:37:07.951Z,930.13
2016-12-31T01:37:35.761Z,930.11
2016-12-31T01:38:03.509Z,930.1
2016-12-31T01:38:31.275Z,930.11
2016-12-31T01:38:59.087Z,930.1
2016-12-31T01:39:26.874Z,930.11
2016-12-31T01:39:54.727Z,930.12
2016-12-31T01:40:22.498Z,930.12
2016-12-31T01:40:50.326Z,930.11
2016-12-31T01:41:18.128Z,930.08
2016-12-31T01:41:45.927Z,930.08
2016-12-31T01:42:13.770Z,930.08
2016-12-31T01:42:41.564Z,930.14
2016-12-31T01:43:09.396Z,930.11
2016-12-31T01:43:37.235Z,930.14
2016-12-31T01:44:05.014Z,930.16
2016-12-31T01:44:33.048Z,930.11
2016-12-31T01:45:00.939Z,930.14
2016-12-31T01:45:28.798Z,930.13
2016-12-31T01:45:56.662Z,930.13
2016-12-31T01:46:24.421Z,930.15
2016-12-31T01:46:52.308Z,930.1
2016-12-31T01:47:20.103Z,930.15
2016-12-31T01:47:47.854Z,930.09
2016-12-31T01:48:15.619Z,930.08
2016-12-31T01:48:43.400Z,930.05
2016-12-31T01:49:11.218Z,930.07
2016-12-31T01:49:39.029Z,930.05
2016-12-31T01:50:06.936Z,930.04
2016-12-31T01:50:34.721Z,930.02
2016-12-31T01:51:02.508Z,930.03
2016-12-31T01:51:30.298Z,930.03
2016-12-31T01:51:58.178Z,930
2016-12-31T01:52:25.998Z,930.03
2016-12-31T01:52:53.767Z,930.02
2016-12-31T01:53:21.569Z,929.99
2016-12-31T01:53:49.362Z,930.02
2016-12-31T01:54:17.262Z,930.02
2016-12-31T01:54:45.032Z,930
2016-12-31T01:55:12.935Z,930.06
2016-12-31T01:55:40.714Z,930.09
2016-12-31T01:56:08.547Z,930.05
2016-12-31T01:56:36.351Z,930.1
2016-12-31T01:57:04.157Z,930.14
2016-12-31T01:57:31.975Z,930.14
2016-12-31T01:57:59.776Z,930.15
2016-12-31T01:58:27.551Z,930.14
2016-12-31T01:58:55.330Z,930.19
2016-12-31T01:59:23.111Z,930.15
2016-12-31T01:59:50.868Z,930.18
2016-12-31T02:00:18.761Z,930.18
2016-12-31T02:00:46.529Z,930.2
2016-12-31T02:01:14.315Z,930.2
2016-12-31T02:01:42.206Z,930.23
2016-12-31T02:02:10.030Z,930.25
2016-12-31T02:02:37.776Z,930.22
2016-12-31T02:03:05.557Z,930.28
2016-12-31T02:03:33.328Z,930.27
2016-12-31T02:04:01.116Z,930.31
2016-12-31T02:04:28.920Z,930.36
2016-12-31T02:04:56.729Z,930.35
2016-12-31T02:05:24.624Z,930.33
2016-12-31T02:05:52.411Z,930.34
2016-12-31T02:06:20.200Z,930.35
2016-12-31T02:06:48.011Z,930.35
2016-12-31T02:07:15.765Z,930.37
2016-12-31T02:07:43.566Z,930.39
2016-12-31T02:08:11.308Z,930.37
2016-12-31T02:08:39.119Z,930.37
2016-12-31T02:09:06.890Z,930.35
2016-12-31T02:09:34.649Z,930.38
2016-12-31T02:10:02.435Z,930.4
2016-12-31T02:10:30.336Z,930.39
2016-12-31T02:10:58.164Z,930.4
2016-12-31T02:11:25.955Z,930.37
2016-12-31T02:11:53.737Z,930.38
2016-12-31T02:12:21.501Z,930.41
2016-12-31T02:12:49.268Z,930.42
2016-12-31T02:13:17.033Z,930.44
2016-12-31T02:13:44.794Z,930.42
2016-12-31T02:14:12.553Z,930.38
2016-12-31T02:14:40.426Z,930.38
2016-12-31T02:15:08.191Z,930.38
2016-12-31T02:15:36.102Z,930.36
2016-12-31T02:16:03.903Z,930.43
2016-12-31T02:16:31.736Z,930.39
2016-12-31T02:16:59.508Z,930.4
2016-12-31T02:17:27.291Z,930.38
2016-12-31T02:17:55.062Z,930.36
2016-12-31T02:18:22.849Z,930.41
2016-12-31T02:18:50.634Z,930.42
2016-12-31T02:19:18.427Z,930.4
2016-12-31T02:19:46.219Z,930.43
2016-12-31T02:20:14.076Z,930.39
2016-12-31T02:20:41.878Z,930.43
2016-12-31T02:21:09.641Z,930.39
2016-12-31T02:21:37.430Z,930.43
2016-12-31T02:22:05.238Z,930.41
2016-12-31T02:22:32.998Z,930.43
2016-12-31T02:23:00.836Z,930.41
2016-12-31T02:23:28.606Z,930.41
2016-12-31T02:23:56.463Z,930.4
2016-12-31T02:24:24.238Z,930.39
2016-12-31T02:24:52.021Z,930.42
2016-12-31T02:25:19.912Z,930.43
2016-12-31T02:25:47.732Z,930.38
2016-12-31T02:26:15.531Z,930.39
2016-12-31T02:26:43.280Z,930.38
2016-12-31T02:27:11.060Z,930.39
2016-12-31T02:27:38.909Z,930.4
2016-12-31T02:28:06.732Z,930.42
2016-12-31T02:28:34.538Z,930.39
2016-12-31T02:29:02.291Z,930.41
2016-12-31T02:29:30.084Z,930.4
2016-12-31T02:29:57.871Z,930.4
2016-12-31T02:30:25.737Z,930.38
2016-12-31T02:30:53.587Z,930.36
2016-12-31T02:31:21.387Z,930.34
2016-12-31T02:31:49.181Z,930.36
2016-12-31T02:32:17.019Z,930.34
2016-12-31T02:32:44.762Z,930.33
2016-12-31T02:33:12.560Z,930.32
2016-12-31T02:33:40.374Z,930.34
2016-12-31T02:34:08.152Z,930.35
2016-12-31T02:34:35.933Z,930.34
2016-12-31T02:35:03.742Z,930.35
2016-12-31T02:35:31.580Z,930.34
2016-12-31T02:35:59.422Z,930.3
2016-12-31T02:36:27.271Z,930.32
2016-12-31T02:36:55.117Z,930.35
2016-12-31T02:37:22.913Z,930.31
2016-12-31T02:37:50.666Z,930.31
2016-12-31T02:38:18.436Z,930.31
2016-12-31T02:38:46.235Z,930.34
2016-12-31T02:39:13.984Z,930.29
2016-12-31T02:39:41.742Z,930.3
2016-12-31T02:40:09.560Z,930.26
2016-12-31T02:40:37.462Z,930.29
2016-12-31T02:41:05.288Z,930.24
2016-12-31T02:41:33.092Z,930.26
2016-12-31T02:42:00.860Z,930.24
2016-12-31T02:42:28.659Z,930.27
2016-12-31T02:42:56.463Z,930.22
2016-12-31T02:43:24.222Z,930.22
2016-12-31T02:43:51.997Z,930.19
2016-12-31T02:44:19.776Z,930.22
2016-12-31T02:44:47.568Z,930.24
2016-12-31T02:45:15.340Z,930.16
2016-12-31T02:45:43.254Z,930.15
2016-12-31T02:46:11.057Z,930.17
2016-12-31T02:46:38.782Z,930.16
2016-12-31T02:47:06.765Z,930.16
2016-12-31T02:47:34.541Z,930.17
2016-12-31T02:48:02.367Z,930.13
2016-12-31T02:48:30.128Z,930.14
2016-12-31T02:48:57.920Z,930.14
2016-12-31T02:49:25.709Z,930.11
2016-12-31T02:49:53.545Z,930.09
2016-12-31T02:50:21.314Z,930.09
2016-12-31T02:50:49.164Z,930.07
2016-12-31T02:51:16.984Z,930.1
2016-12-31T02:51:44.755Z,930.13
2016-12-31T02:52:12.629Z,930.14
2016-12-31T02:52:40.431Z,930.13
2016-12-31T02:53:08.241Z,930.14
2016-12-31T02:53:36.010Z,930.16
2016-12-31T02:54:03.756Z,930.2
2016-12-31T02:54:31.540Z,930.21
2016-12-31T02:54:59.356Z,930.17
2016-12-31T02:55:27.135Z,930.2
2016-12-31T02:55:55.042Z,930.22
2016-12-31T02:56:22.817Z,930.19
2016-12-31T02:56:50.580Z,930.19
2016-12-31T02:57:18.371Z,930.2
2016-12-31T02:57:46.187Z,930.16
2016-12-31T02:58:13.963Z,930.16
2016-12-31T02:58:41.729Z,930.14
2016-12-31T02:59:09.483Z,930.09
2016-12-31T02:59:37.262Z,930.12
2016-12-31T03:00:05.123Z,930.11
2016-12-31T03:00:32.913Z,930.11
2016-12-31T03:01:00.796Z,930.11
2016-12-31T03:01:28.612Z,930.12
2016-12-31T03:01:56.425Z,930.12
2016-12-31T03:02:24.215Z,930.11
2016-12-31T03:02:52.024Z,930.08
2016-12-31T03:03:19.812Z,930.07
2016-12-31T03:03:47.640Z,930.06
2016-12-31T03:04:15.462Z,930.1
2016-12-31T03:04:43.246Z,930.05
2016-12-31T03:05:11.030Z,930.09
2016-12-31T03:05:38.822Z,930.04
2016-12-31T03:06:06.729Z,930.04
2016-12-31T03:06:34.528Z,930.05
2016-12-31T03:07:02.304Z,930.01
2016-12-31T03:07:30.077Z,930
2016-12-31T03:07:57.824Z,930
2016-12-31T03:08:25.620Z,929.99
2016-12-31T03:08:53.395Z,929.98
2016-12-31T03:09:21.159Z,929.98
2016-12-31T03:09:48.924Z,929.96
2016-12-31T03:10:16.699Z,929.93
2016-12-31T03:10:44.452Z,929.94
2016-12-31T03:11:12.355Z,929.95
2016-12-31T03:11:40.182Z,929.94
2016-12-31T03:12:07.958Z,929.93
2016-12-31T03:12:35.831Z,929.94
2016-12-31T03:13:03.727Z,929.94
2016-12-31T03:13:31.482Z,929.99
2016-12-31T03:13:59.253Z,929.95
2016-12-31T03:14:27.020Z,929.94
2016-12-31T03:14:54.787Z,929.95
2016-12-31T03:15:22.561Z,929.96
2016-12-31T03:15:50.335Z,929.94
2016-12-31T03:16:18.166Z,929.94
2016-12-31T03:16:46.001Z,929.93
2016-12-31T03:17:13.836Z,929.92
2016-12-31T03:17:41.655Z,929.91
2016-12-31T03:18:09.422Z,929.9
2016-12-31T03:18:37.233Z,929.87
2016-12-31T03:19:05.015Z,929.89
2016-12-31T03:19:32.822Z,929.9
2016-12-31T03:20:00.618Z,929.89
2016-12-31T03:20:28.386Z,929.9
2016-12-31T03:20:56.165Z,929.89
2016-12-31T03:21:24.013Z,929.91
2016-12-31T03:21:51.916Z,929.87
2016-12-31T03:22:19.725Z,929.87
2016-12-31T03:22:47.506Z,929.86
2016-12-31T03:23:15.287Z,929.87
2016-12-31T03:23:43.065Z,929.88
2016-12-31T03:24:10.836Z,929.84
2016-12-31T03:24:38.617Z,929.82
2016-12-31T03:25:06.407Z,929.84
2016-12-31T03:25:34.187Z,929.83
2016-12-31T03:26:02.053Z,929.81
2016-12-31T03:26:29.880Z,929.79
2016-12-31T03:26:57.692Z,929.81
2016-12-31T03:27:25.470Z,929.81
2016-12-31T03:27:53.323Z,929.81
2016-12-31T03:28:21.201Z,929.77
2016-12-31T03:28:48.971Z,929.78
2016-12-31T03:29:16.765Z,929.81
2016-12-31T03:29:44.536Z,929.76
2016-12-31T03:30:12.320Z,929.78
2016-12-31T03:30:40.106Z,929.79
2016-12-31T03:31:08.039Z,929.79
2016-12-31T03:31:35.808Z,929.78
2016-12-31T03:32:03.629Z,929.78
2016-12-31T03:32:31.389Z,929.76
2016-12-31T03:32:59.140Z,929.79
2016-12-31T03:33:26.946Z,929.78
2016-12-31T03:33:54.745Z,929.76
2016-12-31T03:34:22.523Z,929.77
2016-12-31T03:34:50.297Z,929.77
2016-12-31T03:35:18.102Z,929.77
2016-12-31T03:35:45.869Z,929.78
2016-12-31T03:36:13.733Z,929.77
2016-12-31T03:36:41.525Z,929.77
2016-12-31T03:37:09.328Z,929.73
2016-12-31T03:37:37.132Z,929.77
2016-12-31T03:38:04.959Z,929.76
2016-12-31T03:38:32.737Z,929.74
2016-12-31T03:39:00.504Z,929.76
2016-12-31T03:39:28.257Z,929.7
2016-12-31T03:39:56.164Z,929.74
2016-12-31T03:40:23.938Z,929.74
2016-12-31T03:40:51.722Z,929.7
2016-12-31T03:41:19.577Z,929.68
2016-12-31T03:41:47.373Z,929.73
2016-12-31T03:42:15.188Z,929.69
2016-12-31T03:42:42.978Z,929.71
2016-12-31T03:43:10.747Z,929.72
2016-12-31T03:43:38.549Z,929.72
2016-12-31T03:44:06.337Z,929.71
2016-12-31T03:44:34.136Z,929.69
2016-12-31T03:45:01.957Z,929.7
2016-12-31T03:45:29.701Z,929.7
2016-12-31T03:45:57.460Z,929.68
2016-12-31T03:46:25.374Z,929.69
2016-12-31T03:46:53.156Z,929.66
2016-12-31T03:47:20.954Z,929.7
2016-12-31T03:47:48.754Z,929.68
2016-12-31T03:48:16.565Z,929.68
2016-12-31T03:48:44.398Z,929.64
2016-12-31T03:49:12.162Z,929.63
2016-12-31T03:49:39.969Z,929.61
2016-12-31T03:50:07.750Z,929.6
2016-12-31T03:50:35.568Z,929.6
2016-12-31T03:51:03.339Z,929.56
2016-12-31T03:51:31.292Z,929.57
2016-12-31T03:51:59.099Z,929.56
2016-12-31T03:52:26.917Z,929.57
2016-12-31T03:52:54.688Z,929.54
2016-12-31T03:53:22.453Z,929.54
2016-12-31T03:53:50.199Z,929.56
2016-12-31T03:54:17.989Z,929.56
2016-12-31T03:54:45.799Z,929.54
2016-12-31T03:55:13.594Z,929.49
2016-12-31T03:55:41.345Z,929.54
2016-12-31T03:56:09.140Z,929.51
2016-12-31T03:56:37.062Z,929.52
2016-12-31T03:57:04.847Z,929.49
2016-12-31T03:57:32.676Z,929.51
2016-12-31T03:58:00.415Z,929.46
2016-12-31T03:58:28.185Z,929.51
2016-12-31T03:58:55.943Z,929.45
2016-12-31T03:59:23.700Z,929.43
2016-12-31T03:59:51.475Z,929.43
2016-12-31T04:00:19.310Z,929.42
2016-12-31T04:00:47.071Z,929.45
2016-12-31T04:01:14.855Z,929.41
2016-12-31T04:01:42.734Z,929.43
2016-12-31T04:02:10.512Z,929.4
2016-12-31T04:02:38.271Z,929.42
2016-12-31T04:03:06.068Z,929.43
2016-12-31T04:03:33.875Z,929.43
2016-12-31T04:04:01.635Z,929.4
2016-12-31T04:04:29.390Z,929.41
2016-12-31T04:04:57.144Z,929.4
2016-12-31T04:05:24.927Z,929.4
2016-12-31T04:05:52.697Z,929.4
2016-12-31T04:06:20.447Z,929.41
2016-12-31T04:06:48.362Z,929.41
2016-12-31T04:07:16.150Z,929.38
2016-12-31T04:07:43.954Z,929.36
2016-12-31T04:08:11.730Z,929.34
2016-12-31T04:08:39.476Z,929.34
2016-12-31T04:09:07.241Z,929.35
2016-12-31T04:09:35.034Z,929.34
2016-12-31T04:10:02.839Z,929.33
2016-12-31T04:10:30.618Z,929.27
2016-12-31T04:10:58.374Z,929.31
2016-12-31T04:11:26.139Z,929.31
2016-12-31T04:11:54.094Z,929.28
2016-12-31T04:12:21.887Z,929.25
2016-12-31T04:12:49.678Z,929.22
2016-12-31T04:13:17.471Z,929.24
2016-12-31T04:13:45.275Z,929.24
2016-12-31T04:14:13.030Z,929.25
2016-12-31T04:14:40.792Z,929.22
2016-12-31T04:15:08.540Z,929.24
2016-12-31T04:15:36.301Z,929.22
2016-12-31T04:16:04.080Z,929.25
2016-12-31T04:16:31.852Z,929.22
2016-12-31T04:16:59.814Z,929.24
2016-12-31T04:17:27.576Z,929.24
2016-12-31T04:17:55.334Z,929.22
2016-12-31T04:18:23.110Z,929.24
2016-12-31T04:18:50.919Z,929.24
2016-12-31T04:19:18.814Z,929.23
2016-12-31T04:19:46.527Z,929.22
2016-12-31T04:20:14.300Z,929.22
2016-12-31T04:20:42.179Z,929.2
2016-12-31T04:21:09.961Z,929.22
2016-12-31T04:21:37.758Z,929.18
2016-12-31T04:22:05.627Z,929.18
2016-12-31T04:22:33.412Z,929.19
2016-12-31T04:23:01.188Z,929.16
2016-12-31T04:23:29.001Z,929.15
2016-12-31T04:23:56.814Z,929.15
2016-12-31T04:24:24.618Z,929.17
2016-12-31T04:24:52.471Z,929.19
2016-12-31T04:25:20.225Z,929.14
2016-12-31T04:25:47.978Z,929.09
2016-12-31T04:26:15.773Z,929.15
2016-12-31T04:26:43.544Z,929.11
2016-12-31T04:27:11.387Z,929.15
2016-12-31T04:27:39.184Z,929.16
2016-12-31T04:28:06.923Z,929.11
2016-12-31T04:28:34.695Z,929.08
2016-12-31T04:29:02.491Z,929.07
2016-12-31T04:29:30.226Z,929.06
2016-12-31T04:29:58.006Z,929.07
2016-12-31T04:30:25.801Z,929.05
2016-12-31T04:30:53.595Z,929.03
2016-12-31T04:31:21.325Z,929.04
2016-12-31T04:31:49.095Z,929.02
2016-12-31T04:32:16.974Z,929.04
2016-12-31T04:32:44.746Z,929.02
2016-12-31T04:33:12.518Z,928.99
2016-12-31T04:33:40.272Z,929
2016-12-31T04:34:08.073Z,929.02
2016-12-31T04:34:35.828Z,929.03
2016-12-31T04:35:03.596Z,929.03
2016-12-31T04:35:31.359Z,929.01
2016-12-31T04:35:59.159Z,929.03
2016-12-31T04:36:26.925Z,929.01
2016-12-31T04:36:54.698Z,929.01
2016-12-31T04:37:22.606Z,929.02
2016-12-31T04:37:50.420Z,929.01
2016-12-31T04:38:18.207Z,929.06
2016-12-31T04:38:45.964Z,929.01
2016-12-31T04:39:13.768Z,929.05
2016-12-31T04:39:41.528Z,928.99
2016-12-31T04:40:09.283Z,928.96
2016-12-31T04:40:37.045Z,929.03
2016-12-31T04:41:04.811Z,928.97
2016-12-31T04:41:32.616Z,928.97
2016-12-31T04:42:00.347Z,928.93
2016-12-31T04:42:28.207Z,928.92
2016-12-31T04:42:55.946Z,928.92
2016-12-31T04:43:23.812Z,928.95
2016-12-31T04:43:51.616Z,928.86
2016-12-31T04:44:19.426Z,928.91
2016-12-31T04:44:47.183Z,928.88
2016-12-31T04:45:14.949Z,928.87
2016-12-31T04:45:42.760Z,928.89
2016-12-31T04:46:10.569Z,928.88
2016-12-31T04:46:38.370Z,928.88
2016-12-31T04:47:06.148Z,928.88
2016-12-31T04:47:34.035Z,928.9
2016-12-31T04:48:01.830Z,928.89
2016-12-31T04:48:29.610Z,928.91
2016-12-31T04:48:57.433Z,928.91
2016-12-31T04:49:25.220Z,928.86
2016-12-31T04:49:52.988Z,928.95
2016-12-31T04:50:20.742Z,928.9
2016-12-31T04:50:48.509Z,928.89
2016-12-31T04:51:16.263Z,928.97
2016-12-31T04:51:44.048Z,928.96
2016-12-31T04:52:11.816Z,928.92
2016-12-31T04:52:39.723Z,928.97
2016-12-31T04:53:07.584Z,928.94
2016-12-31T04:53:35.385Z,928.97
2016-12-31T04:54:03.194Z,929
2016-12-31T04:54:30.975Z,928.95
2016-12-31T04:54:58.712Z,928.96
2016-12-31T04:55:26.451Z,928.96
2016-12-31T04:55:54.250Z,928.96
2016-12-31T04:56:21.979Z,928.94
2016-12-31T04:56:49.793Z,928.94
2016-12-31T04:57:17.580Z,928.94
2016-12-31T04:57:45.493Z,928.92
2016-12-31T04:58:13.210Z,928.92
2016-12-31T04:58:40.987Z,928.94
2016-12-31T04:59:08.807Z,928.97
2016-12-31T04:59:36.628Z,928.91
2016-12-31T05:00:04.424Z,928.93
2016-12-31T05:00:32.186Z,928.9
2016-12-31T05:00:59.936Z,928.89
2016-12-31T05:01:27.761Z,928.9
2016-12-31T05:01:55.513Z,928.89
2016-12-31T05:02:23.321Z,928.86
2016-12-31T05:02:51.233Z,928.85
2016-12-31T05:03:19.047Z,928.86
2016-12-31T05:03:46.870Z,928.81
2016-12-31T05:04:14.712Z,928.84
2016-12-31T05:04:42.508Z,928.83
2016-12-31T05:05:10.328Z,928.83
2016-12-31T05:05:38.111Z,928.81
2016-12-31T05:06:05.876Z,928.85
2016-12-31T05:06:33.767Z,928.82
2016-12-31T05:07:01.547Z,928.8
2016-12-31T05:07:29.320Z,928.78
2016-12-31T05:07:57.205Z,928.75
2016-12-31T05:08:24.980Z,928.78
2016-12-31T05:08:52.771Z,928.79
2016-12-31T05:09:20.589Z,928.76
2016-12-31T05:09:48.342Z,928.79
2016-12-31T05:10:16.120Z,928.79
2016-12-31T05:10:43.908Z,928.76
2016-12-31T05:11:11.690Z,928.77
2016-12-31T05:11:39.472Z,928.84
2016-12-31T05:12:07.239Z,928.81
2016-12-31T05:12:35.117Z,928.8
2016-12-31T05:13:03.024Z,928.84
2016-12-31T05:13:30.801Z,928.81
2016-12-31T05:13:58.631Z,928.82
2016-12-31T05:14:26.407Z,928.83
2016-12-31T05:14:54.155Z,928.83
2016-12-31T05:15:22.550Z,928.84
2016-12-31T05:15:50.305Z,928.82
2016-12-31T05:16:18.101Z,928.81
2016-12-31T05:16:45.844Z,928.85
2016-12-31T05:17:13.651Z,928.84
2016-12-31T05:17:41.531Z,928.82
2016-12-31T05:18:09.293Z,928.81
2016-12-31T05:18:37.092Z,928.79
2016-12-31T05:19:04.908Z,928.83
2016-12-31T05:19:32.680Z,928.82
2016-12-31T05:20:00.522Z,928.81
2016-12-31T05:20:28.327Z,928.81
2016-12-31T05:20:56.091Z,928.76
2016-12-31T05:21:23.912Z,928.82
2016-12-31T05:21:51.734Z,928.79
2016-12-31T05:22:19.518Z,928.8
2016-12-31T05:22:47.414Z,928.79
2016-12-31T05:23:15.194Z,928.78
2016-12-31T05:23:42.947Z,928.75
2016-12-31T05:24:10.716Z,928.76
2016-12-31T05:24:38.444Z,928.74
2016-12-31T05:25:06.330Z,928.71
2016-12-31T05:25:34.093Z,928.74
2016-12-31T05:26:01.867Z,928.71
2016-12-31T05:26:29.663Z,928.72
2016-12-31T05:26:57.472Z,928.69
2016-12-31T05:27:25.275Z,928.73
2016-12-31T05:27:53.140Z,928.71
2016-12-31T05:28:20.946Z,928.7
2016-12-31T05:28:48.754Z,928.68
2016-12-31T05:29:16.527Z,928.69
2016-12-31T05:29:44.269Z,928.65
2016-12-31T05:30:12.048Z,928.68
2016-12-31T05:30:39.852Z,928.67
2016-12-31T05:31:07.667Z,928.67
2016-12-31T05:31:35.447Z,928.66
2016-12-31T05:32:03.187Z,928.65
2016-12-31T05:32:30.963Z,928.64
2016-12-31T05:32:58.844Z,928.64
2016-12-31T05:33:26.605Z,928.64
2016-12-31T05:33:54.441Z,928.66
2016-12-31T05:34:22.239Z,928.66
2016-12-31T05:34:49.986Z,928.67
2016-12-31T05:35:17.758Z,928.66
2016-12-31T05:35:45.582Z,928.67
2016-12-31T05:36:13.361Z,928.65
2016-12-31T05:36:41.180Z,928.64
2016-12-31T05:37:09.003Z,928.62
2016-12-31T05:37:36.772Z,928.63
2016-12-31T05:38:04.648Z,928.64
2016-12-31T05:38:32.407Z,928.62
2016-12-31T05:39:00.176Z,928.62
2016-12-31T05:39:27.931Z,928.61
2016-12-31T05:39:55.821Z,928.58
2016-12-31T05:40:23.693Z,928.59
2016-12-31T05:40:51.531Z,928.54
2016-12-31T05:41:19.449Z,928.58
2016-12-31T05:41:47.190Z,928.55
2016-12-31T05:42:15.035Z,928.55
2016-12-31T05:42:42.785Z,928.59
2016-12-31T05:43:10.668Z,928.57
2016-12-31T05:43:38.416Z,928.58
2016-12-31T05:44:06.179Z,928.56
2016-12-31T05:44:34.017Z,928.53
2016-12-31T05:45:01.895Z,928.59
2016-12-31T05:45:29.655Z,928.58
2016-12-31T05:45:57.451Z,928.61
2016-12-31T05:46:25.224Z,928.58
2016-12-31T05:46:52.980Z,928.6
2016-12-31T05:47:20.853Z,928.6
2016-12-31T05:47:48.720Z,928.61
2016-12-31T05:48:16.634Z,928.6